Latest Coastal Weather Observations for Hopetoun North

IDW60701

Issued at 10:23 pm WST Tuesday 28 February 2017 (issued every 10 minutes, with the page automatically refreshed every 10 minutes)

About coastal observations | Map of coastal stations | Coastal observations for WA | Marine services | Other Formats
Station Details ID: 009961 Name: HOPETOUN NORTH Lat: -33.93 Lon: 120.13 Height: 26.0 m
Data from the previous 72 hours. | See also: Recent months at Hopetoun North
Date/Time
WST
Temp
°C
Wind Pressure Rain since
9am
mm
Weather Cloud Vis
km
Sea
Height
m
Swell
Dir  Spd
kts
Gust
kts
hPa Trend Height
m
Period
s
Dir
28/10:00pm 19.7 ESE 6 9 1018.7 - 0.0 - - - - - - -
28/09:30pm 19.5 ESE 7 11 1019.0 - 0.0 - - - - - - -
28/09:00pm 19.6 E 6 11 1018.8 - 0.0 - - - - - - -
28/08:30pm 19.5 ESE 7 12 1018.8 - 0.0 - - - - - - -
28/08:00pm 19.5 ESE 8 12 1018.5 - 0.0 - - - - - - -
28/07:30pm 19.6 ESE 8 14 1018.2 - 0.0 - - - - - - -
28/07:00pm 19.8 ESE 8 12 1018.0 - 0.0 - - - - - - -
28/06:30pm 19.7 ESE 8 14 1017.6 - 0.0 - - - - - - -
28/06:00pm 19.8 ESE 9 13 1017.3 - 0.0 - - - - - - -
28/05:30pm 20.0 ESE 8 12 1017.3 - 0.0 - - - - - - -
28/05:00pm 20.2 ESE 8 14 1017.2 - 0.0 - - - - - - -
28/04:30pm 20.3 ESE 9 14 1017.3 - 0.0 - - - - - - -
28/04:00pm 20.4 SE 9 14 1017.3 - 0.0 - - - - - - -
28/03:30pm 20.9 SE 10 16 1017.2 - 0.0 - - - - - - -
28/03:00pm 20.8 SE 10 14 1017.0 - 0.0 - - - - - - -
28/02:30pm 21.3 SE 9 13 1017.0 - 0.0 - - - - - - -
28/02:00pm 21.5 SE 10 14 1017.0 - 0.0 - - - - - - -
28/01:30pm 21.6 SE 11 14 1017.1 - 0.0 - - - - - - -
28/01:00pm 22.2 SE 10 14 1017.4 - 0.0 - - - - - - -
28/12:30pm 21.6 ESE 10 14 1017.5 - 0.0 - - - - - - -
28/12:00pm 21.8 ESE 9 13 1017.6 - 0.0 - - - - - - -
28/11:30am 21.5 SE 10 14 1017.7 - 0.0 - - - - - - -
28/11:00am 21.2 SE 9 14 1017.9 - 0.0 - - - - - - -
28/10:30am 20.9 SE 9 13 1018.2 - 0.0 - - - - - - -
28/10:00am 21.3 SE 8 13 1018.3 - 0.0 - - - - - - -
28/09:30am 21.0 SE 8 11 1018.4 - 0.0 - - - - - - -
28/09:00am 20.6 ESE 7 10 1018.4 - 0.0 - - - - - - -
28/08:30am 20.1 ESE 5 9 1018.4 - 0.0 - - - - - - -
28/08:00am 19.7 SE 7 11 1018.4 - 0.0 - - - - - - -
28/07:30am 19.4 ESE 7 11 1018.6 - 0.0 - - - - - - -
28/07:00am 19.2 E 7 11 1018.5 - 0.0 - - - - - - -
28/06:30am 18.9 E 6 10 1017.9 - 0.0 - - - - - - -
28/06:00am 18.6 E 6 9 1017.9 - 0.0 - - - - - - -
28/05:30am 18.5 E 7 10 1017.5 - 0.0 - - - - - - -
28/05:00am 18.6 E 3 5 1018.3 - 0.0 - - - - - - -
28/04:30am 18.7 E 6 10 1017.6 - 0.0 - - - - - - -
28/04:00am 18.7 E 8 13 1017.5 - 0.0 - - - - - - -
28/03:30am 18.6 SE 5 8 1017.8 - 0.0 - - - - - - -
28/03:00am 18.6 ESE 8 12 1017.3 - 0.0 - - - - - - -
28/02:30am 18.5 SE 7 11 1017.7 - 0.0 - - - - - - -
28/02:00am 18.5 S 8 12 1017.5 - 0.0 - - - - - - -
28/01:30am 18.5 S 8 10 1017.6 - 0.0 - - - - - - -
28/01:00am 18.3 SE 5 7 1017.6 - 0.0 - - - - - - -
28/12:30am 18.9 ESE 4 5 1018.0 - 0.0 - - - - - - -
28/12:00am 18.9 ESE 5 8 1018.4 - 0.0 - - - - - - -
 
Date/Time
WST
Temp
°C
Wind Pressure Rain since
9am
mm
Weather Cloud Vis
km
Sea
Height
m
Swell
Dir  Spd
kts
Gust
kts
hPa Trend Height
m
Period
s
Dir
27/11:30pm 18.7 ESE 5 7 1018.6 - 0.0 - - - - - - -
27/11:00pm 18.6 ESE 4 7 1018.0 - 0.0 - - - - - - -
27/10:30pm 18.5 ESE 6 8 1017.8 - 0.0 - - - - - - -
27/10:00pm 18.3 SE 5 8 1017.8 - 0.0 - - - - - - -
27/09:30pm 18.4 SE 6 10 1017.9 - 0.0 - - - - - - -
27/09:00pm 19.0 SE 7 10 1018.2 - 0.0 - - - - - - -
27/08:30pm 18.9 SE 6 10 1018.0 - 0.0 - - - - - - -
27/08:00pm 18.7 SSE 6 10 1017.7 - 0.0 - - - - - - -
27/07:30pm 19.1 SE 6 9 1017.4 - 0.0 - - - - - - -
27/07:00pm 19.1 SE 7 11 1017.1 - 0.0 - - - - - - -
27/06:30pm 19.2 SE 6 10 1016.9 - 0.0 - - - - - - -
27/06:00pm 19.4 SSE 8 11 1016.9 - 0.0 - - - - - - -
27/05:30pm 19.5 SSE 8 10 1016.5 - 0.0 - - - - - - -
27/05:00pm 19.9 SSE 8 11 1016.2 - 0.0 - - - - - - -
27/04:30pm 20.3 SSE 8 12 1016.0 - 0.0 - - - - - - -
27/04:00pm 20.9 SE 8 12 1016.0 - 0.0 - - - - - - -
27/03:30pm 20.7 SSE 8 12 1015.9 - 0.0 - - - - - - -
27/03:00pm 21.4 SSE 10 15 1015.7 - 0.0 - - - - - - -
27/02:30pm 21.1 SSE 10 16 1015.7 - 0.0 - - - - - - -
27/02:00pm 21.9 SE 9 13 1015.8 - 0.0 - - - - - - -
27/01:30pm 21.7 SSE 10 14 1016.0 - 0.0 - - - - - - -
27/01:00pm 22.3 SSE 10 13 1016.5 - 0.0 - - - - - - -
27/12:30pm 22.6 SE 8 13 1016.5 - 0.0 - - - - - - -
27/12:00pm 21.0 SSE 8 12 1016.6 - 0.0 - - - - - - -
27/11:30am 21.2 SSE 9 11 1016.8 - 0.0 - - - - - - -
27/11:00am 21.9 SSE 8 11 1017.0 - 0.0 - - - - - - -
27/10:30am 21.6 SSE 9 12 1017.0 - 0.0 - - - - - - -
27/10:00am 21.3 SSE 9 14 1017.1 - 0.0 - - - - - - -
27/09:30am 20.5 SSE 8 11 1016.9 - 0.0 - - - - - - -
27/09:00am 19.7 SSE 7 11 1016.8 - 0.0 - - - - - - -
27/08:30am 19.2 SSE 7 10 1016.7 - 0.0 - - - - - - -
27/08:00am 19.5 S 7 10 1016.7 - 0.0 - - - - - - -
27/07:30am 19.7 S 8 11 1016.4 - 0.0 - - - - - - -
27/07:00am 18.9 SSE 6 9 1016.2 - 0.0 - - - - - - -
27/06:30am 18.5 SSE 6 8 1015.8 - 0.0 - - - - - - -
27/06:00am 18.0 S 7 9 1015.4 - 0.0 - - - - - - -
27/05:30am 17.8 SSE 3 5 1015.7 - 0.0 - - - - - - -
27/05:00am 17.9 SSE 5 6 1015.3 - 0.0 - - - - - - -
27/04:30am 18.0 S 5 7 1014.9 - 0.0 - - - - - - -
27/04:00am 18.0 S 5 9 1014.7 - 0.0 - - - - - - -
27/03:30am 18.2 S 5 7 1014.6 - 0.0 - - - - - - -
27/03:00am 18.0 S 5 8 1014.4 - 0.0 - - - - - - -
27/02:30am 18.0 S 5 8 1014.3 - 0.0 - - - - - - -
27/02:00am 18.1 S 5 7 1014.3 - 0.0 - - - - - - -
27/01:30am 18.3 S 6 9 1014.2 - 0.0 - - - - - - -
27/01:00am 18.2 S 7 10 1014.1 - 0.0 - - - - - - -
27/12:30am 18.1 S 8 11 1014.0 - 0.0 - - - - - - -
27/12:00am 18.3 S 7 10 1014.1 - 0.0 - - - - - - -
 
Date/Time
WST
Temp
°C
Wind Pressure Rain since
9am
mm
Weather Cloud Vis
km
Sea
Height
m
Swell
Dir  Spd
kts
Gust
kts
hPa Trend Height
m
Period
s
Dir
26/11:30pm 18.2 SSW 9 13 1014.2 - 0.0 - - - - - - -
26/11:00pm 18.0 SSW 7 9 1014.8 - 0.0 - - - - - - -
26/10:30pm 18.2 SSW 8 10 1015.2 - 0.0 - - - - - - -
26/10:00pm 18.3 SSW 8 11 1015.6 - 0.0 - - - - - - -
26/09:30pm 18.4 SSW 6 9 1015.8 - 0.0 - - - - - - -
26/09:00pm 18.8 SSW 6 8 1016.0 - 0.0 - - - - - - -
26/08:30pm 18.8 SSW 10 13 1015.4 - 0.0 - - - - - - -
26/08:00pm 18.6 SSW 7 10 1015.3 - 0.0 - - - - - - -
26/07:30pm 18.6 SW 10 14 1014.2 - 0.0 - - - - - - -
26/07:00pm 18.6 S 9 13 1013.9 - 0.0 - - - - - - -
26/06:30pm 18.4 SSW 10 15 1013.4 - 0.0 - - - - - - -
26/06:00pm 18.8 SSW 10 15 1012.8 - 0.0 - - - - - - -
26/05:30pm 19.0 SSW 12 17 1012.4 - 0.0 - - - - - - -
26/05:00pm 19.3 SSW 12 17 1011.9 - 0.0 - - - - - - -
26/04:30pm 19.9 SSW 15 20 1011.2 - 0.0 - - - - - - -
26/04:00pm 20.4 SSW 14 20 1011.4 - 0.0 - - - - - - -
26/03:30pm 20.7 SSW 13 18 1011.4 - 0.0 - - - - - - -
26/03:00pm 21.9 SSW 12 17 1011.0 - 0.0 - - - - - - -
26/02:30pm 21.9 SW 11 16 1011.1 - 0.0 - - - - - - -
26/02:00pm 21.6 SSW 12 16 1010.8 - 0.0 - - - - - - -
26/01:30pm 22.5 SSW 12 17 1011.0 - 0.0 - - - - - - -
26/01:00pm 21.7 S 11 14 1011.2 - 0.0 - - - - - - -
26/12:30pm 21.6 SSW 9 13 1011.4 - 0.0 - - - - - - -
26/12:00pm 22.1 SSW 10 13 1011.7 - 0.0 - - - - - - -
26/11:30am 22.3 SSW 10 14 1012.0 - 0.0 - - - - - - -
26/11:00am 22.2 SSW 9 12 1012.3 - 0.0 - - - - - - -
26/10:30am 21.9 SW 10 14 1012.6 - 0.0 - - - - - - -
26/10:00am 21.3 SW 10 15 1012.7 - 0.0 - - - - - - -
26/09:30am 21.1 SW 9 13 1012.8 - 0.0 - - - - - - -
26/09:00am 21.2 SW 8 12 1012.7 - 0.2 - - - - - - -
26/08:30am 20.7 SW 9 12 1012.5 - 0.2 - - - - - - -
26/08:00am 20.4 SW 8 12 1012.5 - 0.2 - - - - - - -
26/07:30am 20.1 SW 9 11 1012.5 - 0.2 - - - - - - -
26/07:00am 19.6 SW 9 12 1012.4 - 0.2 - - - - - - -
26/06:30am 19.5 SW 10 13 1012.4 - 0.2 - - - - - - -
26/06:00am 19.3 SW 11 15 1012.0 - 0.2 - - - - - - -
26/05:30am 19.7 SSW 11 15 1011.5 - 0.2 - - - - - - -
26/05:00am 18.6 NW 5 9 1010.7 - 0.2 - - - - - - -
26/04:30am 20.1 N 6 8 1009.9 - 0.2 - - - - - - -
26/04:00am 18.7 NNE 4 5 1010.1 - 0.2 - - - - - - -
26/03:30am 17.6 NE 5 5 1010.0 - 0.2 - - - - - - -
26/03:00am 17.3 NE 6 7 1010.0 - 0.2 - - - - - - -
26/02:30am 17.1 NE 5 6 1010.1 - 0.2 - - - - - - -
26/02:00am 15.8 NE 5 6 1010.2 - 0.2 - - - - - - -
26/01:30am 15.9 NE 5 7 1010.5 - 0.2 - - - - - - -
26/01:00am 16.3 NE 4 5 1011.0 - 0.2 - - - - - - -
26/12:30am 16.2 NE 5 5 1011.2 - 0.2 - - - - - - -
26/12:00am 16.6 NE 4 5 1011.5 - 0.2 - - - - - - -
 
Date/Time
WST
Temp
°C
Wind Pressure Rain since
9am
mm
Weather Cloud Vis
km
Sea
Height
m
Swell
Dir  Spd
kts
Gust
kts
hPa Trend Height
m
Period
s
Dir
25/11:30pm 17.0 NNE 3 4 1011.8 - 0.2 - - - - - - -
25/11:00pm 17.8 NE 3 5 1012.1 - 0.2 - - - - - - -
25/10:30pm 18.6 NE 5 8 1012.6 - 0.2 - - - - - - -

Other Formats:

Comma delimited format used in spreadsheet applications
http://www.bom.gov.au/fwo/IDW60701/IDW60701.95635.axf

JavaScript Object Notation format (JSON) in row-major order
http://www.bom.gov.au/fwo/IDW60701/IDW60701.95635.json